sensor_id;sensor_type;location;lat;lon;timestamp;P1;durP1;ratioP1;P2;durP2;ratioP2
23222;SDS011;11780;13.904;100.620;2023-03-11T00:01:40;70.15;;;51.72;;
23222;SDS011;11780;13.904;100.620;2023-03-11T00:04:09;67.93;;;52.22;;
23222;SDS011;11780;13.904;100.620;2023-03-11T00:06:40;65.55;;;51.60;;
23222;SDS011;11780;13.904;100.620;2023-03-11T00:09:09;57.55;;;44.50;;
23222;SDS011;11780;13.904;100.620;2023-03-11T00:11:40;60.97;;;44.92;;
23222;SDS011;11780;13.904;100.620;2023-03-11T00:14:10;52.83;;;39.20;;
23222;SDS011;11780;13.904;100.620;2023-03-11T00:16:40;54.35;;;42.25;;
23222;SDS011;11780;13.904;100.620;2023-03-11T00:19:10;52.70;;;39.90;;
23222;SDS011;11780;13.904;100.620;2023-03-11T00:21:40;49.67;;;39.38;;
23222;SDS011;11780;13.904;100.620;2023-03-11T00:24:10;54.25;;;42.28;;
23222;SDS011;11780;13.904;100.620;2023-03-11T00:26:40;53.92;;;39.00;;
23222;SDS011;11780;13.904;100.620;2023-03-11T00:29:10;49.35;;;38.05;;
23222;SDS011;11780;13.904;100.620;2023-03-11T00:31:40;48.13;;;38.58;;
23222;SDS011;11780;13.904;100.620;2023-03-11T00:34:10;47.13;;;35.88;;
23222;SDS011;11780;13.904;100.620;2023-03-11T00:36:40;52.70;;;39.15;;
23222;SDS011;11780;13.904;100.620;2023-03-11T00:39:10;56.33;;;40.60;;
23222;SDS011;11780;13.904;100.620;2023-03-11T00:41:42;52.60;;;38.70;;
23222;SDS011;11780;13.904;100.620;2023-03-11T00:44:12;55.80;;;41.50;;
23222;SDS011;11780;13.904;100.620;2023-03-11T00:46:42;53.10;;;43.03;;
23222;SDS011;11780;13.904;100.620;2023-03-11T00:49:12;58.75;;;42.83;;
23222;SDS011;11780;13.904;100.620;2023-03-11T00:51:43;53.22;;;43.33;;
23222;SDS011;11780;13.904;100.620;2023-03-11T00:54:14;59.95;;;41.58;;
23222;SDS011;11780;13.904;100.620;2023-03-11T00:56:44;57.05;;;43.40;;
23222;SDS011;11780;13.904;100.620;2023-03-11T00:59:14;53.20;;;43.95;;
23222;SDS011;11780;13.904;100.620;2023-03-11T01:01:45;59.10;;;43.70;;
23222;SDS011;11780;13.904;100.620;2023-03-11T01:04:15;56.10;;;43.55;;
23222;SDS011;11780;13.904;100.620;2023-03-11T01:06:45;57.67;;;44.58;;
23222;SDS011;11780;13.904;100.620;2023-03-11T01:09:15;62.22;;;43.25;;
23222;SDS011;11780;13.904;100.620;2023-03-11T01:11:45;60.67;;;44.22;;
23222;SDS011;11780;13.904;100.620;2023-03-11T01:14:15;56.85;;;43.05;;
23222;SDS011;11780;13.904;100.620;2023-03-11T01:16:46;58.27;;;44.27;;
23222;SDS011;11780;13.904;100.620;2023-03-11T01:19:16;53.97;;;42.88;;
23222;SDS011;11780;13.904;100.620;2023-03-11T01:21:46;58.50;;;43.25;;
23222;SDS011;11780;13.904;100.620;2023-03-11T01:24:17;52.38;;;41.80;;
23222;SDS011;11780;13.904;100.620;2023-03-11T01:26:47;57.42;;;39.80;;
23222;SDS011;11780;13.904;100.620;2023-03-11T01:29:17;51.10;;;39.00;;
23222;SDS011;11780;13.904;100.620;2023-03-11T01:31:47;53.00;;;39.95;;
23222;SDS011;11780;13.904;100.620;2023-03-11T01:34:17;47.47;;;40.53;;
23222;SDS011;11780;13.904;100.620;2023-03-11T01:36:47;49.13;;;37.72;;
23222;SDS011;11780;13.904;100.620;2023-03-11T01:39:18;53.10;;;41.57;;
23222;SDS011;11780;13.904;100.620;2023-03-11T01:41:48;46.20;;;39.92;;
23222;SDS011;11780;13.904;100.620;2023-03-11T01:44:21;52.63;;;40.70;;
23222;SDS011;11780;13.904;100.620;2023-03-11T01:49:26;51.40;;;41.85;;
23222;SDS011;11780;13.904;100.620;2023-03-11T01:51:58;52.20;;;40.47;;
23222;SDS011;11780;13.904;100.620;2023-03-11T01:54:34;51.85;;;41.42;;
23222;SDS011;11780;13.904;100.620;2023-03-11T01:57:09;47.88;;;36.80;;
23222;SDS011;11780;13.904;100.620;2023-03-11T01:59:43;48.10;;;39.17;;
23222;SDS011;11780;13.904;100.620;2023-03-11T02:02:20;49.58;;;41.53;;
23222;SDS011;11780;13.904;100.620;2023-03-11T02:04:57;50.30;;;42.33;;
23222;SDS011;11780;13.904;100.620;2023-03-11T02:07:31;50.60;;;42.10;;
23222;SDS011;11780;13.904;100.620;2023-03-11T02:10:01;54.88;;;43.95;;
23222;SDS011;11780;13.904;100.620;2023-03-11T02:12:34;55.35;;;43.58;;
23222;SDS011;11780;13.904;100.620;2023-03-11T02:15:08;50.20;;;41.67;;
23222;SDS011;11780;13.904;100.620;2023-03-11T02:17:40;50.20;;;41.53;;
23222;SDS011;11780;13.904;100.620;2023-03-11T02:23:11;49.78;;;40.25;;
23222;SDS011;11780;13.904;100.620;2023-03-11T02:25:51;55.30;;;44.08;;
23222;SDS011;11780;13.904;100.620;2023-03-11T02:28:29;47.97;;;41.55;;
23222;SDS011;11780;13.904;100.620;2023-03-11T02:31:04;50.28;;;42.25;;
23222;SDS011;11780;13.904;100.620;2023-03-11T02:36:06;53.75;;;43.25;;
23222;SDS011;11780;13.904;100.620;2023-03-11T02:38:37;57.80;;;47.40;;
23222;SDS011;11780;13.904;100.620;2023-03-11T02:41:07;54.47;;;45.17;;
23222;SDS011;11780;13.904;100.620;2023-03-11T02:43:42;57.88;;;46.15;;
23222;SDS011;11780;13.904;100.620;2023-03-11T02:46:21;62.45;;;48.42;;
23222;SDS011;11780;13.904;100.620;2023-03-11T02:48:54;56.22;;;48.25;;
23222;SDS011;11780;13.904;100.620;2023-03-11T02:51:33;57.13;;;50.17;;
23222;SDS011;11780;13.904;100.620;2023-03-11T02:54:07;58.00;;;49.78;;
23222;SDS011;11780;13.904;100.620;2023-03-11T02:56:38;63.97;;;54.90;;
23222;SDS011;11780;13.904;100.620;2023-03-11T02:59:09;67.13;;;56.30;;
23222;SDS011;11780;13.904;100.620;2023-03-11T03:02:05;63.72;;;56.70;;
23222;SDS011;11780;13.904;100.620;2023-03-11T03:04:52;66.13;;;57.53;;
23222;SDS011;11780;13.904;100.620;2023-03-11T03:07:22;69.07;;;58.28;;
23222;SDS011;11780;13.904;100.620;2023-03-11T03:09:54;66.13;;;55.50;;
23222;SDS011;11780;13.904;100.620;2023-03-11T03:12:24;66.10;;;52.70;;
23222;SDS011;11780;13.904;100.620;2023-03-11T03:15:00;68.38;;;54.35;;
23222;SDS011;11780;13.904;100.620;2023-03-11T03:17:33;74.18;;;54.72;;
23222;SDS011;11780;13.904;100.620;2023-03-11T03:20:21;63.72;;;54.15;;
23222;SDS011;11780;13.904;100.620;2023-03-11T03:23:10;65.40;;;55.25;;
23222;SDS011;11780;13.904;100.620;2023-03-11T03:25:41;66.05;;;52.15;;
23222;SDS011;11780;13.904;100.620;2023-03-11T03:28:16;66.47;;;55.00;;
23222;SDS011;11780;13.904;100.620;2023-03-11T03:30:51;65.72;;;54.70;;
23222;SDS011;11780;13.904;100.620;2023-03-11T03:33:39;65.75;;;53.53;;
23222;SDS011;11780;13.904;100.620;2023-03-11T03:36:11;62.92;;;53.53;;
23222;SDS011;11780;13.904;100.620;2023-03-11T03:38:54;66.18;;;54.72;;
23222;SDS011;11780;13.904;100.620;2023-03-11T03:41:29;64.70;;;54.20;;
23222;SDS011;11780;13.904;100.620;2023-03-11T03:44:01;67.95;;;55.10;;
23222;SDS011;11780;13.904;100.620;2023-03-11T03:46:33;70.68;;;57.85;;
23222;SDS011;11780;13.904;100.620;2023-03-11T03:49:06;62.60;;;55.55;;
23222;SDS011;11780;13.904;100.620;2023-03-11T03:54:32;62.80;;;53.05;;
23222;SDS011;11780;13.904;100.620;2023-03-11T03:57:05;67.93;;;54.03;;
23222;SDS011;11780;13.904;100.620;2023-03-11T03:59:43;62.25;;;53.67;;
23222;SDS011;11780;13.904;100.620;2023-03-11T04:02:13;61.63;;;51.43;;
23222;SDS011;11780;13.904;100.620;2023-03-11T04:04:46;65.30;;;54.28;;
23222;SDS011;11780;13.904;100.620;2023-03-11T04:07:17;60.10;;;52.00;;
23222;SDS011;11780;13.904;100.620;2023-03-11T04:09:48;64.82;;;53.35;;
23222;SDS011;11780;13.904;100.620;2023-03-11T04:12:23;73.30;;;54.58;;
23222;SDS011;11780;13.904;100.620;2023-03-11T04:17:24;67.82;;;53.60;;
23222;SDS011;11780;13.904;100.620;2023-03-11T04:20:05;64.18;;;52.75;;
23222;SDS011;11780;13.904;100.620;2023-03-11T04:22:40;68.15;;;55.22;;
23222;SDS011;11780;13.904;100.620;2023-03-11T04:25:13;64.50;;;53.75;;
23222;SDS011;11780;13.904;100.620;2023-03-11T04:27:47;65.68;;;53.17;;
23222;SDS011;11780;13.904;100.620;2023-03-11T04:30:33;66.35;;;53.60;;
23222;SDS011;11780;13.904;100.620;2023-03-11T04:33:07;66.07;;;55.95;;
23222;SDS011;11780;13.904;100.620;2023-03-11T04:35:37;66.47;;;56.10;;
23222;SDS011;11780;13.904;100.620;2023-03-11T04:38:10;62.33;;;54.25;;
23222;SDS011;11780;13.904;100.620;2023-03-11T04:40:41;63.60;;;54.33;;
23222;SDS011;11780;13.904;100.620;2023-03-11T04:45:52;78.30;;;62.50;;
23222;SDS011;11780;13.904;100.620;2023-03-11T04:48:23;73.90;;;62.10;;
23222;SDS011;11780;13.904;100.620;2023-03-11T04:50:55;70.13;;;61.03;;
23222;SDS011;11780;13.904;100.620;2023-03-11T04:53:28;79.68;;;62.00;;
23222;SDS011;11780;13.904;100.620;2023-03-11T04:55:58;75.15;;;60.90;;
23222;SDS011;11780;13.904;100.620;2023-03-11T04:58:30;76.50;;;62.10;;
23222;SDS011;11780;13.904;100.620;2023-03-11T05:01:22;73.30;;;58.60;;
23222;SDS011;11780;13.904;100.620;2023-03-11T05:03:55;68.55;;;57.58;;
23222;SDS011;11780;13.904;100.620;2023-03-11T05:06:25;68.27;;;60.50;;
23222;SDS011;11780;13.904;100.620;2023-03-11T05:08:56;68.30;;;56.83;;
23222;SDS011;11780;13.904;100.620;2023-03-11T05:11:28;76.40;;;57.95;;
23222;SDS011;11780;13.904;100.620;2023-03-11T05:13:59;77.47;;;59.88;;
23222;SDS011;11780;13.904;100.620;2023-03-11T05:16:29;71.63;;;59.40;;
23222;SDS011;11780;13.904;100.620;2023-03-11T05:19:03;68.60;;;58.45;;
23222;SDS011;11780;13.904;100.620;2023-03-11T05:21:56;71.50;;;61.85;;
23222;SDS011;11780;13.904;100.620;2023-03-11T05:24:30;66.57;;;59.58;;
23222;SDS011;11780;13.904;100.620;2023-03-11T05:27:01;71.28;;;62.03;;
23222;SDS011;11780;13.904;100.620;2023-03-11T05:29:36;72.18;;;61.50;;
23222;SDS011;11780;13.904;100.620;2023-03-11T05:32:10;72.07;;;61.65;;
23222;SDS011;11780;13.904;100.620;2023-03-11T05:34:43;72.10;;;63.22;;
23222;SDS011;11780;13.904;100.620;2023-03-11T05:37:15;69.70;;;61.47;;
23222;SDS011;11780;13.904;100.620;2023-03-11T05:39:50;69.28;;;61.78;;
23222;SDS011;11780;13.904;100.620;2023-03-11T05:42:21;68.55;;;60.50;;
23222;SDS011;11780;13.904;100.620;2023-03-11T05:44:57;67.20;;;60.00;;
23222;SDS011;11780;13.904;100.620;2023-03-11T05:47:28;66.32;;;59.22;;
23222;SDS011;11780;13.904;100.620;2023-03-11T05:50:16;66.03;;;58.50;;
23222;SDS011;11780;13.904;100.620;2023-03-11T05:52:51;68.93;;;61.10;;
23222;SDS011;11780;13.904;100.620;2023-03-11T05:55:22;67.90;;;60.67;;
23222;SDS011;11780;13.904;100.620;2023-03-11T05:57:52;67.20;;;59.83;;
23222;SDS011;11780;13.904;100.620;2023-03-11T06:00:25;68.75;;;61.05;;
23222;SDS011;11780;13.904;100.620;2023-03-11T06:03:00;66.78;;;59.95;;
23222;SDS011;11780;13.904;100.620;2023-03-11T06:05:32;67.55;;;60.13;;
23222;SDS011;11780;13.904;100.620;2023-03-11T06:08:06;66.72;;;59.63;;
23222;SDS011;11780;13.904;100.620;2023-03-11T06:10:37;66.80;;;59.70;;
23222;SDS011;11780;13.904;100.620;2023-03-11T06:13:10;67.18;;;59.63;;
23222;SDS011;11780;13.904;100.620;2023-03-11T06:15:49;64.32;;;57.50;;
23222;SDS011;11780;13.904;100.620;2023-03-11T06:18:21;66.85;;;59.97;;
23222;SDS011;11780;13.904;100.620;2023-03-11T06:20:58;65.60;;;58.80;;
23222;SDS011;11780;13.904;100.620;2023-03-11T06:23:33;66.75;;;58.58;;
23222;SDS011;11780;13.904;100.620;2023-03-11T06:26:03;66.03;;;58.97;;
23222;SDS011;11780;13.904;100.620;2023-03-11T06:28:38;65.20;;;58.30;;
23222;SDS011;11780;13.904;100.620;2023-03-11T06:31:24;64.25;;;57.40;;
23222;SDS011;11780;13.904;100.620;2023-03-11T06:34:15;64.32;;;57.40;;
23222;SDS011;11780;13.904;100.620;2023-03-11T06:36:45;64.47;;;57.73;;
23222;SDS011;11780;13.904;100.620;2023-03-11T06:39:20;64.45;;;57.85;;
23222;SDS011;11780;13.904;100.620;2023-03-11T06:41:53;66.40;;;59.53;;
23222;SDS011;11780;13.904;100.620;2023-03-11T06:44:26;66.38;;;59.20;;
23222;SDS011;11780;13.904;100.620;2023-03-11T06:46:58;67.68;;;60.25;;
23222;SDS011;11780;13.904;100.620;2023-03-11T06:49:46;66.78;;;59.72;;
23222;SDS011;11780;13.904;100.620;2023-03-11T06:52:17;66.72;;;59.75;;
23222;SDS011;11780;13.904;100.620;2023-03-11T06:54:47;65.50;;;58.40;;
23222;SDS011;11780;13.904;100.620;2023-03-11T06:57:21;66.88;;;59.33;;
23222;SDS011;11780;13.904;100.620;2023-03-11T06:59:57;68.07;;;59.67;;
23222;SDS011;11780;13.904;100.620;2023-03-11T07:02:29;66.70;;;59.22;;
23222;SDS011;11780;13.904;100.620;2023-03-11T07:05:02;70.65;;;60.85;;
23222;SDS011;11780;13.904;100.620;2023-03-11T07:07:33;66.55;;;59.28;;
23222;SDS011;11780;13.904;100.620;2023-03-11T07:10:04;69.28;;;61.67;;
23222;SDS011;11780;13.904;100.620;2023-03-11T07:12:35;73.50;;;61.17;;
23222;SDS011;11780;13.904;100.620;2023-03-11T07:15:06;69.65;;;59.30;;
23222;SDS011;11780;13.904;100.620;2023-03-11T07:17:41;78.22;;;64.68;;
23222;SDS011;11780;13.904;100.620;2023-03-11T07:20:11;67.45;;;59.95;;
23222;SDS011;11780;13.904;100.620;2023-03-11T07:22:44;76.25;;;61.25;;
23222;SDS011;11780;13.904;100.620;2023-03-11T07:25:15;69.95;;;62.40;;
23222;SDS011;11780;13.904;100.620;2023-03-11T07:27:45;69.67;;;61.90;;
23222;SDS011;11780;13.904;100.620;2023-03-11T07:30:20;72.35;;;62.25;;
23222;SDS011;11780;13.904;100.620;2023-03-11T07:32:53;72.35;;;62.60;;
23222;SDS011;11780;13.904;100.620;2023-03-11T07:35:23;73.10;;;62.25;;
23222;SDS011;11780;13.904;100.620;2023-03-11T07:37:57;73.55;;;60.40;;
23222;SDS011;11780;13.904;100.620;2023-03-11T07:40:28;71.22;;;63.58;;
23222;SDS011;11780;13.904;100.620;2023-03-11T07:43:02;70.10;;;62.58;;
23222;SDS011;11780;13.904;100.620;2023-03-11T07:45:32;71.32;;;62.60;;
23222;SDS011;11780;13.904;100.620;2023-03-11T07:48:03;71.67;;;61.77;;
23222;SDS011;11780;13.904;100.620;2023-03-11T07:50:34;69.25;;;60.75;;
23222;SDS011;11780;13.904;100.620;2023-03-11T07:53:04;69.90;;;62.27;;
23222;SDS011;11780;13.904;100.620;2023-03-11T07:55:42;69.03;;;61.10;;
23222;SDS011;11780;13.904;100.620;2023-03-11T07:58:12;67.65;;;60.55;;
23222;SDS011;11780;13.904;100.620;2023-03-11T08:00:43;66.22;;;59.28;;
23222;SDS011;11780;13.904;100.620;2023-03-11T08:03:16;74.95;;;62.33;;
23222;SDS011;11780;13.904;100.620;2023-03-11T08:05:52;70.78;;;62.83;;
23222;SDS011;11780;13.904;100.620;2023-03-11T08:08:28;67.10;;;58.65;;
23222;SDS011;11780;13.904;100.620;2023-03-11T08:11:02;68.32;;;60.03;;
23222;SDS011;11780;13.904;100.620;2023-03-11T08:13:35;71.65;;;60.53;;
23222;SDS011;11780;13.904;100.620;2023-03-11T08:16:08;69.45;;;61.95;;
23222;SDS011;11780;13.904;100.620;2023-03-11T08:18:59;67.15;;;59.63;;
23222;SDS011;11780;13.904;100.620;2023-03-11T08:21:32;68.78;;;60.38;;
23222;SDS011;11780;13.904;100.620;2023-03-11T08:24:05;70.82;;;63.20;;
23222;SDS011;11780;13.904;100.620;2023-03-11T08:29:09;67.95;;;60.53;;
23222;SDS011;11780;13.904;100.620;2023-03-11T08:31:39;71.50;;;60.77;;
23222;SDS011;11780;13.904;100.620;2023-03-11T08:34:09;71.38;;;63.75;;
23222;SDS011;11780;13.904;100.620;2023-03-11T08:36:40;70.13;;;62.65;;
23222;SDS011;11780;13.904;100.620;2023-03-11T08:39:12;74.65;;;63.22;;
23222;SDS011;11780;13.904;100.620;2023-03-11T08:41:43;75.47;;;63.67;;
23222;SDS011;11780;13.904;100.620;2023-03-11T08:44:15;75.53;;;61.97;;
23222;SDS011;11780;13.904;100.620;2023-03-11T08:46:46;72.37;;;64.47;;
23222;SDS011;11780;13.904;100.620;2023-03-11T08:49:16;67.60;;;60.33;;
23222;SDS011;11780;13.904;100.620;2023-03-11T08:51:47;70.73;;;63.00;;
23222;SDS011;11780;13.904;100.620;2023-03-11T08:54:17;70.27;;;62.57;;
23222;SDS011;11780;13.904;100.620;2023-03-11T08:56:47;68.70;;;60.80;;
23222;SDS011;11780;13.904;100.620;2023-03-11T08:59:22;69.75;;;61.47;;
23222;SDS011;11780;13.904;100.620;2023-03-11T09:01:52;71.15;;;62.58;;
23222;SDS011;11780;13.904;100.620;2023-03-11T09:04:23;67.72;;;60.78;;
23222;SDS011;11780;13.904;100.620;2023-03-11T09:06:53;76.85;;;63.83;;
23222;SDS011;11780;13.904;100.620;2023-03-11T09:09:23;69.93;;;62.20;;
23222;SDS011;11780;13.904;100.620;2023-03-11T09:11:56;66.88;;;59.40;;
23222;SDS011;11780;13.904;100.620;2023-03-11T09:14:30;69.95;;;61.42;;
23222;SDS011;11780;13.904;100.620;2023-03-11T09:17:06;70.05;;;62.30;;
23222;SDS011;11780;13.904;100.620;2023-03-11T09:19:39;74.15;;;63.33;;
23222;SDS011;11780;13.904;100.620;2023-03-11T09:22:12;70.90;;;62.80;;
23222;SDS011;11780;13.904;100.620;2023-03-11T09:24:45;69.05;;;60.88;;
23222;SDS011;11780;13.904;100.620;2023-03-11T09:27:15;71.07;;;63.22;;
23222;SDS011;11780;13.904;100.620;2023-03-11T09:29:48;79.65;;;66.65;;
23222;SDS011;11780;13.904;100.620;2023-03-11T09:32:21;76.53;;;65.43;;
23222;SDS011;11780;13.904;100.620;2023-03-11T09:34:51;80.27;;;64.10;;
23222;SDS011;11780;13.904;100.620;2023-03-11T09:37:22;73.25;;;65.22;;
23222;SDS011;11780;13.904;100.620;2023-03-11T09:39:52;73.00;;;64.22;;
23222;SDS011;11780;13.904;100.620;2023-03-11T09:45:14;71.13;;;62.10;;
23222;SDS011;11780;13.904;100.620;2023-03-11T09:48:02;75.70;;;64.22;;
23222;SDS011;11780;13.904;100.620;2023-03-11T09:50:58;75.95;;;64.05;;
23222;SDS011;11780;13.904;100.620;2023-03-11T09:53:45;79.38;;;62.05;;
23222;SDS011;11780;13.904;100.620;2023-03-11T09:56:19;69.72;;;62.15;;
23222;SDS011;11780;13.904;100.620;2023-03-11T09:59:04;73.72;;;61.72;;
23222;SDS011;11780;13.904;100.620;2023-03-11T10:01:41;76.38;;;64.43;;
23222;SDS011;11780;13.904;100.620;2023-03-11T10:07:11;65.60;;;56.50;;
23222;SDS011;11780;13.904;100.620;2023-03-11T10:09:51;67.78;;;59.95;;
23222;SDS011;11780;13.904;100.620;2023-03-11T10:15:46;70.72;;;54.80;;
23222;SDS011;11780;13.904;100.620;2023-03-11T10:18:35;61.65;;;51.58;;
23222;SDS011;11780;13.904;100.620;2023-03-11T10:24:37;62.08;;;49.17;;
23222;SDS011;11780;13.904;100.620;2023-03-11T10:27:34;68.60;;;50.35;;
23222;SDS011;11780;13.904;100.620;2023-03-11T10:30:36;60.65;;;48.20;;
23222;SDS011;11780;13.904;100.620;2023-03-11T10:36:15;64.43;;;48.35;;
23222;SDS011;11780;13.904;100.620;2023-03-11T10:38:53;57.65;;;45.75;;
23222;SDS011;11780;13.904;100.620;2023-03-11T10:41:34;59.60;;;47.45;;
23222;SDS011;11780;13.904;100.620;2023-03-11T10:44:18;59.97;;;47.08;;
23222;SDS011;11780;13.904;100.620;2023-03-11T10:47:03;57.90;;;45.70;;
23222;SDS011;11780;13.904;100.620;2023-03-11T10:49:34;52.35;;;42.95;;
23222;SDS011;11780;13.904;100.620;2023-03-11T10:52:04;53.20;;;42.53;;
23222;SDS011;11780;13.904;100.620;2023-03-11T10:54:36;54.43;;;45.33;;
23222;SDS011;11780;13.904;100.620;2023-03-11T10:57:23;56.33;;;42.80;;
23222;SDS011;11780;13.904;100.620;2023-03-11T10:59:56;54.33;;;43.05;;
23222;SDS011;11780;13.904;100.620;2023-03-11T11:05:21;54.55;;;41.88;;
23222;SDS011;11780;13.904;100.620;2023-03-11T11:08:04;53.22;;;42.65;;
23222;SDS011;11780;13.904;100.620;2023-03-11T11:10:37;62.33;;;42.05;;
23222;SDS011;11780;13.904;100.620;2023-03-11T11:13:22;55.08;;;41.40;;
23222;SDS011;11780;13.904;100.620;2023-03-11T11:16:00;50.83;;;40.40;;
23222;SDS011;11780;13.904;100.620;2023-03-11T11:19:07;61.93;;;43.73;;
23222;SDS011;11780;13.904;100.620;2023-03-11T11:21:41;52.72;;;41.95;;
23222;SDS011;11780;13.904;100.620;2023-03-11T11:30:12;55.20;;;44.55;;
23222;SDS011;11780;13.904;100.620;2023-03-11T11:32:45;54.92;;;43.35;;
23222;SDS011;11780;13.904;100.620;2023-03-11T11:35:16;54.08;;;41.60;;
23222;SDS011;11780;13.904;100.620;2023-03-11T11:37:54;48.70;;;39.40;;
23222;SDS011;11780;13.904;100.620;2023-03-11T11:40:31;54.58;;;41.15;;
23222;SDS011;11780;13.904;100.620;2023-03-11T11:43:08;60.72;;;40.92;;
23222;SDS011;11780;13.904;100.620;2023-03-11T11:45:44;52.30;;;39.90;;
23222;SDS011;11780;13.904;100.620;2023-03-11T11:51:20;54.08;;;38.58;;
23222;SDS011;11780;13.904;100.620;2023-03-11T11:54:02;47.75;;;37.78;;
23222;SDS011;11780;13.904;100.620;2023-03-11T11:56:45;54.97;;;39.53;;
23222;SDS011;11780;13.904;100.620;2023-03-11T11:59:16;47.72;;;38.78;;
23222;SDS011;11780;13.904;100.620;2023-03-11T12:01:54;49.50;;;37.92;;
23222;SDS011;11780;13.904;100.620;2023-03-11T12:21:11;46.00;;;38.55;;
23222;SDS011;11780;13.904;100.620;2023-03-11T12:26:39;51.97;;;37.17;;
23222;SDS011;11780;13.904;100.620;2023-03-11T12:29:33;48.17;;;36.78;;
23222;SDS011;11780;13.904;100.620;2023-03-11T12:32:11;50.08;;;38.92;;
23222;SDS011;11780;13.904;100.620;2023-03-11T12:38:00;53.45;;;39.90;;
23222;SDS011;11780;13.904;100.620;2023-03-11T12:46:04;49.47;;;36.10;;
23222;SDS011;11780;13.904;100.620;2023-03-11T12:48:41;45.72;;;37.95;;
23222;SDS011;11780;13.904;100.620;2023-03-11T12:54:26;45.88;;;36.88;;
23222;SDS011;11780;13.904;100.620;2023-03-11T12:57:33;48.58;;;35.70;;
23222;SDS011;11780;13.904;100.620;2023-03-11T13:00:46;43.88;;;35.53;;
23222;SDS011;11780;13.904;100.620;2023-03-11T13:03:31;50.80;;;35.85;;
23222;SDS011;11780;13.904;100.620;2023-03-11T13:06:20;48.85;;;36.10;;
23222;SDS011;11780;13.904;100.620;2023-03-11T13:09:14;43.75;;;35.67;;
23222;SDS011;11780;13.904;100.620;2023-03-11T13:11:46;40.22;;;33.88;;
23222;SDS011;11780;13.904;100.620;2023-03-11T13:14:30;42.78;;;33.75;;
23222;SDS011;11780;13.904;100.620;2023-03-11T13:17:22;41.10;;;32.17;;
23222;SDS011;11780;13.904;100.620;2023-03-11T13:19:57;45.03;;;32.47;;
23222;SDS011;11780;13.904;100.620;2023-03-11T13:22:42;43.22;;;33.60;;
23222;SDS011;11780;13.904;100.620;2023-03-11T13:25:36;41.08;;;32.33;;
23222;SDS011;11780;13.904;100.620;2023-03-11T13:28:23;38.50;;;32.38;;
23222;SDS011;11780;13.904;100.620;2023-03-11T13:33:50;43.53;;;31.50;;
23222;SDS011;11780;13.904;100.620;2023-03-11T13:39:18;42.28;;;33.55;;
23222;SDS011;11780;13.904;100.620;2023-03-11T13:41:51;38.67;;;33.28;;
23222;SDS011;11780;13.904;100.620;2023-03-11T13:47:16;38.97;;;31.45;;
23222;SDS011;11780;13.904;100.620;2023-03-11T13:49:50;44.72;;;33.17;;
23222;SDS011;11780;13.904;100.620;2023-03-11T13:52:35;45.03;;;32.10;;
23222;SDS011;11780;13.904;100.620;2023-03-11T13:57:50;40.80;;;32.03;;
23222;SDS011;11780;13.904;100.620;2023-03-11T14:00:24;40.25;;;31.73;;
23222;SDS011;11780;13.904;100.620;2023-03-11T14:03:02;47.25;;;32.47;;
23222;SDS011;11780;13.904;100.620;2023-03-11T14:05:43;40.65;;;33.05;;
23222;SDS011;11780;13.904;100.620;2023-03-11T14:16:11;38.55;;;30.67;;
23222;SDS011;11780;13.904;100.620;2023-03-11T14:21:43;36.88;;;30.40;;
23222;SDS011;11780;13.904;100.620;2023-03-11T14:24:26;39.00;;;31.63;;
23222;SDS011;11780;13.904;100.620;2023-03-11T14:26:59;39.63;;;30.98;;
23222;SDS011;11780;13.904;100.620;2023-03-11T14:29:32;37.72;;;31.95;;
23222;SDS011;11780;13.904;100.620;2023-03-11T14:34:58;38.05;;;30.83;;
23222;SDS011;11780;13.904;100.620;2023-03-11T14:37:34;41.33;;;31.33;;
23222;SDS011;11780;13.904;100.620;2023-03-11T14:40:25;45.72;;;31.77;;
23222;SDS011;11780;13.904;100.620;2023-03-11T14:43:02;35.17;;;31.23;;
23222;SDS011;11780;13.904;100.620;2023-03-11T14:45:36;38.25;;;31.80;;
23222;SDS011;11780;13.904;100.620;2023-03-11T14:48:13;39.83;;;31.90;;
23222;SDS011;11780;13.904;100.620;2023-03-11T14:50:45;41.95;;;31.10;;
23222;SDS011;11780;13.904;100.620;2023-03-11T14:53:19;39.50;;;31.15;;
23222;SDS011;11780;13.904;100.620;2023-03-11T14:55:53;42.72;;;30.70;;
23222;SDS011;11780;13.904;100.620;2023-03-11T15:01:34;41.47;;;31.05;;
23222;SDS011;11780;13.904;100.620;2023-03-11T15:04:11;38.70;;;29.38;;
23222;SDS011;11780;13.904;100.620;2023-03-11T15:06:44;44.10;;;32.10;;
23222;SDS011;11780;13.904;100.620;2023-03-11T15:09:18;39.70;;;30.35;;
23222;SDS011;11780;13.904;100.620;2023-03-11T15:11:55;36.13;;;29.58;;
23222;SDS011;11780;13.904;100.620;2023-03-11T15:14:31;41.78;;;30.08;;
23222;SDS011;11780;13.904;100.620;2023-03-11T15:17:15;36.03;;;30.35;;
23222;SDS011;11780;13.904;100.620;2023-03-11T15:23:05;36.22;;;29.02;;
23222;SDS011;11780;13.904;100.620;2023-03-11T15:25:48;36.17;;;29.25;;
23222;SDS011;11780;13.904;100.620;2023-03-11T15:31:45;37.13;;;28.30;;
23222;SDS011;11780;13.904;100.620;2023-03-11T15:33:49;35.92;;;28.65;;
23222;SDS011;11780;13.904;100.620;2023-03-11T15:36:31;33.33;;;27.55;;
23222;SDS011;11780;13.904;100.620;2023-03-11T15:39:12;36.92;;;29.17;;
23222;SDS011;11780;13.904;100.620;2023-03-11T15:42:01;39.00;;;30.52;;
23222;SDS011;11780;13.904;100.620;2023-03-11T15:47:21;31.77;;;27.00;;
23222;SDS011;11780;13.904;100.620;2023-03-11T15:52:21;33.75;;;27.95;;
23222;SDS011;11780;13.904;100.620;2023-03-11T15:54:52;34.10;;;28.05;;
23222;SDS011;11780;13.904;100.620;2023-03-11T15:57:26;38.15;;;30.08;;
23222;SDS011;11780;13.904;100.620;2023-03-11T15:59:58;40.65;;;29.92;;
23222;SDS011;11780;13.904;100.620;2023-03-11T16:02:32;36.25;;;29.67;;
23222;SDS011;11780;13.904;100.620;2023-03-11T16:05:10;39.38;;;30.00;;
23222;SDS011;11780;13.904;100.620;2023-03-11T16:07:44;40.17;;;31.17;;
23222;SDS011;11780;13.904;100.620;2023-03-11T16:10:16;39.77;;;31.00;;
23222;SDS011;11780;13.904;100.620;2023-03-11T16:12:48;41.63;;;30.10;;
23222;SDS011;11780;13.904;100.620;2023-03-11T16:15:29;40.90;;;30.92;;
23222;SDS011;11780;13.904;100.620;2023-03-11T16:18:07;37.80;;;30.30;;
23222;SDS011;11780;13.904;100.620;2023-03-11T16:20:41;35.50;;;31.02;;
23222;SDS011;11780;13.904;100.620;2023-03-11T16:23:17;34.95;;;30.08;;
23222;SDS011;11780;13.904;100.620;2023-03-11T16:26:07;38.45;;;30.20;;
23222;SDS011;11780;13.904;100.620;2023-03-11T16:28:42;34.08;;;30.17;;
23222;SDS011;11780;13.904;100.620;2023-03-11T16:31:13;36.73;;;30.03;;
23222;SDS011;11780;13.904;100.620;2023-03-11T16:33:43;35.72;;;29.40;;
23222;SDS011;11780;13.904;100.620;2023-03-11T16:36:14;39.00;;;30.63;;
23222;SDS011;11780;13.904;100.620;2023-03-11T16:38:47;41.75;;;31.90;;